createdAt,value
2022-12-18T00:00:04.799Z,0.00
2022-12-18T00:01:04.727Z,0.00
2022-12-18T00:02:04.887Z,0.00
2022-12-18T00:03:04.837Z,0.00
2022-12-18T00:04:04.876Z,0.00
2022-12-18T00:05:04.660Z,0.00
2022-12-18T00:06:04.731Z,0.00
2022-12-18T00:07:04.683Z,0.00
2022-12-18T00:08:04.646Z,0.00
2022-12-18T00:09:04.614Z,0.00
2022-12-18T00:10:04.626Z,0.00
2022-12-18T00:11:04.599Z,0.00
2022-12-18T00:13:08.266Z,0.00
2022-12-18T00:14:04.603Z,0.00
2022-12-18T00:15:04.562Z,0.00
2022-12-18T00:16:04.637Z,0.00
2022-12-18T00:17:04.550Z,0.00
2022-12-18T00:18:04.579Z,0.00
2022-12-18T00:19:10.549Z,0.00
2022-12-18T00:20:04.513Z,0.00
2022-12-18T00:21:04.504Z,0.00
2022-12-18T00:22:04.505Z,0.00
2022-12-18T00:23:04.481Z,0.00
2022-12-18T00:24:04.510Z,0.00
2022-12-18T00:25:04.492Z,0.00
2022-12-18T00:26:04.473Z,0.00
2022-12-18T00:27:04.465Z,0.00
2022-12-18T00:28:04.441Z,0.00
2022-12-18T00:29:04.428Z,0.00
2022-12-18T00:30:04.445Z,0.00
2022-12-18T00:31:04.512Z,0.00
2022-12-18T00:32:04.497Z,0.00
2022-12-18T00:33:04.386Z,0.00
2022-12-18T00:34:04.394Z,0.00
2022-12-18T00:35:04.361Z,0.00
2022-12-18T00:36:04.382Z,0.00
2022-12-18T00:37:04.339Z,0.00
2022-12-18T00:38:04.348Z,0.00
2022-12-18T00:39:04.324Z,0.00
2022-12-18T00:40:04.329Z,0.00
2022-12-18T00:41:04.357Z,0.00
2022-12-18T00:42:04.313Z,0.00
2022-12-18T00:43:04.285Z,0.00
2022-12-18T00:44:04.295Z,0.00
2022-12-18T00:45:09.083Z,0.00
2022-12-18T00:46:04.343Z,0.00
2022-12-18T00:47:04.278Z,0.00
2022-12-18T00:48:04.256Z,0.00
2022-12-18T00:49:04.228Z,0.00
2022-12-18T00:50:04.235Z,0.00
2022-12-18T00:51:04.207Z,0.00
2022-12-18T00:52:04.215Z,0.00
2022-12-18T00:53:04.227Z,0.00
2022-12-18T00:54:04.191Z,0.00
2022-12-18T00:55:06.441Z,0.00
2022-12-18T00:56:04.237Z,0.00
2022-12-18T00:57:04.150Z,0.00
2022-12-18T00:58:04.169Z,0.00
2022-12-18T00:59:04.154Z,0.00
2022-12-18T01:00:04.150Z,0.00
2022-12-18T01:01:04.174Z,0.00
2022-12-18T01:02:04.249Z,0.00
2022-12-18T01:03:04.204Z,0.00
2022-12-18T01:04:04.098Z,0.00
2022-12-18T01:05:04.080Z,0.00
2022-12-18T01:06:04.110Z,0.00
2022-12-18T01:07:04.062Z,0.00
2022-12-18T01:08:04.102Z,0.00
2022-12-18T01:09:04.046Z,0.00
2022-12-18T01:10:04.040Z,0.00
2022-12-18T01:11:04.013Z,0.00
2022-12-18T01:12:04.032Z,0.00
2022-12-18T01:13:04.005Z,0.00
2022-12-18T01:14:03.997Z,0.00
2022-12-18T01:15:03.983Z,0.00
2022-12-18T01:16:04.027Z,0.00
2022-12-18T01:17:03.983Z,0.00
2022-12-18T01:18:03.971Z,0.00
2022-12-18T01:19:03.942Z,0.00
2022-12-18T01:20:03.936Z,0.00
2022-12-18T01:21:03.919Z,0.00
2022-12-18T01:22:03.922Z,0.00
2022-12-18T01:23:03.939Z,0.00
2022-12-18T01:24:03.905Z,0.00
2022-12-18T01:25:03.890Z,0.00
2022-12-18T01:26:03.894Z,0.00
2022-12-18T01:27:03.869Z,0.00
2022-12-18T01:28:03.907Z,0.00
2022-12-18T01:29:03.856Z,0.00
2022-12-18T01:30:03.850Z,0.00
2022-12-18T01:31:03.824Z,0.00
2022-12-18T01:32:03.904Z,0.00
2022-12-18T01:33:03.817Z,0.00
2022-12-18T01:34:03.804Z,0.00
2022-12-18T01:35:03.798Z,0.00
2022-12-18T01:36:03.801Z,0.00
2022-12-18T01:37:03.780Z,0.00
2022-12-18T01:38:03.775Z,0.00
2022-12-18T01:39:03.742Z,0.00
2022-12-18T01:40:03.746Z,0.00
2022-12-18T01:41:03.721Z,0.00
2022-12-18T01:42:03.728Z,0.00
2022-12-18T01:43:03.726Z,0.00
2022-12-18T01:44:03.710Z,0.00
2022-12-18T01:45:03.696Z,0.00
2022-12-18T01:46:03.731Z,0.00
2022-12-18T01:47:03.670Z,0.00
2022-12-18T01:48:03.693Z,0.00
2022-12-18T01:49:03.648Z,0.00
2022-12-18T01:50:03.664Z,0.00
2022-12-18T01:51:03.638Z,0.00
2022-12-18T01:52:03.643Z,0.00
2022-12-18T01:53:03.631Z,0.00
2022-12-18T01:54:03.610Z,0.00
2022-12-18T01:55:03.584Z,0.00
2022-12-18T01:56:03.596Z,0.00
2022-12-18T01:57:03.568Z,0.00
2022-12-18T01:58:03.573Z,0.00
2022-12-18T01:59:03.566Z,0.00
2022-12-18T02:00:03.566Z,0.00
2022-12-18T02:01:03.608Z,0.00
2022-12-18T02:02:03.742Z,0.00
2022-12-18T02:03:03.538Z,0.00
2022-12-18T02:04:03.530Z,0.00
2022-12-18T02:05:03.499Z,0.00
2022-12-18T02:06:03.504Z,0.00
2022-12-18T02:07:03.482Z,0.00
2022-12-18T02:08:03.500Z,0.00
2022-12-18T02:09:03.461Z,0.00
2022-12-18T02:10:03.467Z,0.00
2022-12-18T06:00:44.866Z,0.00
2022-12-18T06:01:45.893Z,0.00
2022-12-18T06:02:45.904Z,0.00
2022-12-18T06:03:46.550Z,0.00
2022-12-18T06:04:45.801Z,0.00
2022-12-18T06:05:45.822Z,0.00
2022-12-18T06:06:45.788Z,0.00
2022-12-18T06:07:45.790Z,0.00
2022-12-18T06:08:46.659Z,0.00
2022-12-18T06:09:45.733Z,0.00
2022-12-18T06:10:45.780Z,0.00
2022-12-18T06:11:45.721Z,0.00
2022-12-18T06:12:45.737Z,0.00
2022-12-18T06:13:45.701Z,0.00
2022-12-18T06:14:45.709Z,0.00
2022-12-18T06:15:51.778Z,0.00
2022-12-18T06:16:45.683Z,0.00
2022-12-18T06:17:45.660Z,0.00
2022-12-18T06:18:45.693Z,0.00
2022-12-18T06:19:45.644Z,0.00
2022-12-18T06:20:45.652Z,0.00
2022-12-18T06:21:45.669Z,0.00
2022-12-18T06:22:45.618Z,0.00
2022-12-18T06:23:45.605Z,0.00
2022-12-18T06:24:45.613Z,0.00
2022-12-18T06:25:45.587Z,0.00
2022-12-18T06:26:45.591Z,0.00
2022-12-18T06:27:45.591Z,0.00
2022-12-18T06:28:45.596Z,0.00
2022-12-18T06:29:45.547Z,0.00
2022-12-18T06:30:45.550Z,0.00
2022-12-18T06:31:45.603Z,0.00
2022-12-18T06:32:45.555Z,0.00
2022-12-18T06:33:45.519Z,0.00
2022-12-18T06:34:45.580Z,0.00
2022-12-18T06:35:45.512Z,0.00
2022-12-18T06:36:45.507Z,0.00
2022-12-18T06:37:45.484Z,0.00
2022-12-18T06:38:45.489Z,0.00
2022-12-18T06:39:45.485Z,0.00
2022-12-18T06:40:45.469Z,0.00
2022-12-18T06:41:45.419Z,0.00
2022-12-18T06:42:45.435Z,0.00
2022-12-18T06:43:45.412Z,0.00
2022-12-18T06:44:45.433Z,0.00
2022-12-18T06:45:45.418Z,0.00
2022-12-18T06:46:45.390Z,0.00
2022-12-18T06:47:45.318Z,1.00
2022-12-18T06:48:45.372Z,0.00
2022-12-18T06:49:45.306Z,1.00
2022-12-18T06:50:45.332Z,1.00
2022-12-18T06:51:45.293Z,1.00
2022-12-18T06:52:45.365Z,0.00
2022-12-18T06:53:45.305Z,0.00
2022-12-18T06:54:45.279Z,2.00
2022-12-18T06:55:45.241Z,1.00
2022-12-18T06:56:45.257Z,1.00
2022-12-18T06:57:45.217Z,2.00
2022-12-18T06:58:45.227Z,1.00
2022-12-18T06:59:45.208Z,1.00
2022-12-18T07:00:45.237Z,5.00
2022-12-18T07:01:45.405Z,2.00
2022-12-18T07:02:45.311Z,4.00
2022-12-18T07:03:45.743Z,2.00
2022-12-18T07:04:45.177Z,2.00
2022-12-18T07:05:45.145Z,4.00
2022-12-18T07:06:45.147Z,5.00
2022-12-18T07:07:45.114Z,5.00
2022-12-18T07:08:45.137Z,9.00
2022-12-18T07:09:45.107Z,13.00
2022-12-18T07:10:48.188Z,13.00
2022-12-18T07:11:45.077Z,15.00
2022-12-18T07:12:45.083Z,15.00
2022-12-18T07:13:45.062Z,17.00
2022-12-18T07:14:45.080Z,20.00
2022-12-18T07:15:45.038Z,18.00
2022-12-18T07:16:45.080Z,21.00
2022-12-18T07:17:45.024Z,32.00
2022-12-18T07:18:45.026Z,35.00
2022-12-18T07:19:45.054Z,42.00
2022-12-18T07:20:45.006Z,44.00
2022-12-18T07:21:44.984Z,49.00
2022-12-18T07:22:44.993Z,57.00
2022-12-18T07:23:44.960Z,58.00
2022-12-18T07:24:44.966Z,63.00
2022-12-18T07:25:44.957Z,65.00
2022-12-18T07:26:45.021Z,67.00
2022-12-18T07:27:44.949Z,69.00
2022-12-18T07:28:44.941Z,77.00
2022-12-18T07:29:44.917Z,84.00
2022-12-18T07:30:44.896Z,89.00
2022-12-18T07:31:44.961Z,96.00
2022-12-18T07:32:44.917Z,94.00
2022-12-18T07:33:44.869Z,98.00
2022-12-18T07:34:44.890Z,108.00
2022-12-18T07:35:44.843Z,112.00
2022-12-18T07:36:44.863Z,117.00
2022-12-18T07:37:44.827Z,123.00
2022-12-18T07:38:44.860Z,130.00
2022-12-18T07:39:44.810Z,136.00
2022-12-18T07:40:44.815Z,141.00
2022-12-18T07:41:46.942Z,145.00
2022-12-18T07:42:44.805Z,152.00
2022-12-18T07:43:45.009Z,159.00
2022-12-18T07:44:44.795Z,163.00
2022-12-18T07:45:44.807Z,167.00
2022-12-18T07:46:44.750Z,168.00
2022-12-18T07:47:44.733Z,172.00
2022-12-18T07:48:46.306Z,172.00
2022-12-18T07:49:44.748Z,171.00
2022-12-18T07:50:44.709Z,173.00
2022-12-18T07:51:44.702Z,174.00
2022-12-18T07:52:44.712Z,179.00
2022-12-18T07:53:44.675Z,179.00
2022-12-18T07:54:44.689Z,183.00
2022-12-18T07:56:11.184Z,188.00
2022-12-18T07:56:44.658Z,190.00
2022-12-18T07:57:55.177Z,193.00
2022-12-18T07:58:44.646Z,198.00
2022-12-18T07:59:44.612Z,199.00
2022-12-18T08:00:44.626Z,207.00
2022-12-18T08:01:44.661Z,206.00
2022-12-18T08:02:44.786Z,209.00
2022-12-18T08:03:44.590Z,210.00
2022-12-18T08:04:44.581Z,214.00
2022-12-18T08:05:44.582Z,218.00
2022-12-18T08:06:47.807Z,222.00
2022-12-18T08:07:44.568Z,227.00
2022-12-18T08:08:44.532Z,233.00
2022-12-18T08:09:44.519Z,240.00
2022-12-18T08:10:44.519Z,246.00
2022-12-18T08:11:44.487Z,251.00
2022-12-18T08:12:44.521Z,257.00
2022-12-18T08:13:44.491Z,265.00
2022-12-18T08:14:44.479Z,270.00
2022-12-18T08:15:44.463Z,276.00
2022-12-18T08:16:44.513Z,280.00
2022-12-18T08:17:44.456Z,284.00
2022-12-18T08:18:44.465Z,289.00
2022-12-18T08:19:44.413Z,292.00
2022-12-18T08:20:44.433Z,294.00
2022-12-18T08:21:44.405Z,298.00
2022-12-18T08:22:44.415Z,302.00
2022-12-18T08:23:44.456Z,304.00
2022-12-18T08:24:44.386Z,310.00
2022-12-18T08:25:44.360Z,314.00
2022-12-18T08:27:00.840Z,317.00
2022-12-18T08:27:44.360Z,322.00
2022-12-18T08:28:44.378Z,323.00
2022-12-18T08:29:44.319Z,326.00
2022-12-18T08:30:44.396Z,329.00
2022-12-18T08:31:44.400Z,334.00
2022-12-18T08:32:44.328Z,336.00
2022-12-18T08:33:44.603Z,339.00
2022-12-18T08:34:44.295Z,342.00
2022-12-18T08:35:46.097Z,344.00
2022-12-18T08:36:44.271Z,346.00
2022-12-18T08:37:44.233Z,350.00
2022-12-18T08:38:44.273Z,353.00
2022-12-18T08:39:44.240Z,355.00
2022-12-18T08:40:44.237Z,360.00
2022-12-18T08:41:44.432Z,364.00
2022-12-18T08:42:44.217Z,367.00
2022-12-18T08:43:44.191Z,374.00
2022-12-18T08:44:44.181Z,381.00
2022-12-18T08:45:44.241Z,383.00
2022-12-18T08:46:44.238Z,388.00
2022-12-18T08:47:44.141Z,391.00
2022-12-18T08:48:44.139Z,397.00
2022-12-18T08:49:44.127Z,413.00
2022-12-18T08:50:44.137Z,431.00
2022-12-18T08:51:44.116Z,448.00
2022-12-18T08:52:44.106Z,460.00
2022-12-18T08:53:44.246Z,467.00
2022-12-18T08:54:44.089Z,473.00
2022-12-18T08:55:48.623Z,476.00
2022-12-18T08:56:44.088Z,485.00
2022-12-18T08:57:44.079Z,499.00
2022-12-18T08:58:44.066Z,513.00
2022-12-18T08:59:44.019Z,522.00
2022-12-18T09:00:44.030Z,525.00
2022-12-18T09:01:44.100Z,531.00
2022-12-18T09:02:44.194Z,535.00
2022-12-18T09:03:44.545Z,533.00
2022-12-18T09:04:44.019Z,527.00
2022-12-18T09:05:43.971Z,516.00
2022-12-18T09:06:43.984Z,501.00
2022-12-18T09:07:43.959Z,483.00
2022-12-18T09:08:44.427Z,475.00
2022-12-18T09:09:43.943Z,471.00
2022-12-18T09:10:43.934Z,468.00
2022-12-18T09:11:43.917Z,468.00
2022-12-18T09:12:43.934Z,475.00
2022-12-18T09:13:43.940Z,476.00
2022-12-18T09:14:43.902Z,480.00
2022-12-18T09:15:43.862Z,479.00
2022-12-18T09:16:43.991Z,472.00
2022-12-18T09:17:43.858Z,470.00
2022-12-18T09:18:44.029Z,469.00
2022-12-18T09:19:43.833Z,466.00
2022-12-18T09:20:43.828Z,466.00
2022-12-18T09:21:48.023Z,468.00
2022-12-18T09:22:43.817Z,470.00
2022-12-18T09:23:43.779Z,478.00
2022-12-18T09:24:43.829Z,482.00
2022-12-18T09:25:43.768Z,485.00
2022-12-18T09:26:45.227Z,484.00
2022-12-18T09:27:43.746Z,489.00
2022-12-18T09:28:44.067Z,497.00
2022-12-18T09:29:43.752Z,506.00
2022-12-18T09:30:43.848Z,514.00
2022-12-18T09:31:43.726Z,524.00
2022-12-18T09:32:43.725Z,532.00
2022-12-18T09:33:43.684Z,539.00
2022-12-18T09:34:43.697Z,548.00
2022-12-18T09:35:43.665Z,552.00
2022-12-18T09:36:43.703Z,553.00
2022-12-18T09:37:43.676Z,553.00
2022-12-18T09:38:43.862Z,565.00
2022-12-18T09:39:43.646Z,572.00
2022-12-18T09:40:43.646Z,580.00
2022-12-18T09:41:43.634Z,594.00
2022-12-18T09:42:43.627Z,614.00
2022-12-18T09:43:43.633Z,635.00
2022-12-18T09:44:45.699Z,660.00
2022-12-18T09:45:43.570Z,686.00
2022-12-18T09:46:43.697Z,710.00
2022-12-18T09:47:43.566Z,730.00
2022-12-18T09:48:43.864Z,752.00
2022-12-18T09:49:43.532Z,774.00
2022-12-18T09:50:43.548Z,788.00
2022-12-18T09:51:43.545Z,793.00
2022-12-18T09:52:43.517Z,798.00
2022-12-18T09:53:43.507Z,798.00
2022-12-18T09:54:43.502Z,792.00
2022-12-18T09:55:43.874Z,773.00
2022-12-18T09:56:43.462Z,757.00
2022-12-18T09:57:43.484Z,763.00
2022-12-18T09:58:43.713Z,768.00
2022-12-18T09:59:43.448Z,768.00
2022-12-18T10:00:43.447Z,762.00
2022-12-18T10:01:44.768Z,751.00
2022-12-18T10:02:43.568Z,752.00
2022-12-18T10:03:43.406Z,753.00
2022-12-18T10:04:43.426Z,730.00
2022-12-18T10:05:43.421Z,699.00
2022-12-18T10:06:43.393Z,656.00
2022-12-18T10:07:43.374Z,621.00
2022-12-18T10:08:43.751Z,597.00
2022-12-18T10:09:43.380Z,588.00
2022-12-18T10:10:43.351Z,593.00
2022-12-18T10:11:43.338Z,618.00
2022-12-18T10:12:43.314Z,655.00
2022-12-18T10:13:43.350Z,691.00
2022-12-18T10:14:43.287Z,716.00
2022-12-18T10:15:43.355Z,723.00
2022-12-18T10:16:43.294Z,737.00
2022-12-18T10:17:43.275Z,757.00
2022-12-18T10:18:43.527Z,775.00
2022-12-18T10:19:43.261Z,787.00
2022-12-18T10:20:43.223Z,807.00
2022-12-18T10:21:43.255Z,833.00
2022-12-18T10:22:43.217Z,854.00
2022-12-18T10:23:48.014Z,867.00
2022-12-18T10:24:43.204Z,873.00
2022-12-18T10:25:43.198Z,881.00
2022-12-18T10:26:43.171Z,882.00
2022-12-18T10:27:43.184Z,886.00
2022-12-18T10:28:43.655Z,902.00
2022-12-18T10:29:43.158Z,908.00
2022-12-18T10:30:43.242Z,910.00
2022-12-18T10:31:43.231Z,930.00
2022-12-18T10:32:43.098Z,930.00
2022-12-18T10:33:43.102Z,884.00
2022-12-18T10:34:43.071Z,947.00
2022-12-18T10:35:43.115Z,937.00
2022-12-18T10:36:43.075Z,959.00
2022-12-18T10:37:43.077Z,975.00
2022-12-18T10:38:43.480Z,1036.00
2022-12-18T10:39:43.059Z,1107.00
2022-12-18T10:40:43.024Z,1069.00
2022-12-18T10:41:43.072Z,1083.00
2022-12-18T10:42:43.003Z,1064.00
2022-12-18T10:43:43.010Z,1076.00
2022-12-18T10:44:42.982Z,1086.00
2022-12-18T10:45:42.996Z,1100.00
2022-12-18T10:46:42.993Z,1102.00
2022-12-18T10:47:43.025Z,1104.00
2022-12-18T10:48:43.581Z,1101.00
2022-12-18T10:49:42.960Z,1144.00
2022-12-18T10:51:42.951Z,1156.00
2022-12-18T10:52:45.208Z,1166.00
2022-12-18T10:53:43.029Z,1148.00
2022-12-18T10:54:42.882Z,1126.00
2022-12-18T10:55:42.888Z,1176.00
2022-12-18T10:56:42.873Z,1213.00
2022-12-18T10:57:42.872Z,1171.00
2022-12-18T10:58:43.357Z,1177.00
2022-12-18T10:59:42.906Z,1208.00
2022-12-18T11:00:42.820Z,1193.00
2022-12-18T11:01:42.951Z,1207.00
2022-12-18T11:02:42.995Z,1202.00
2022-12-18T11:03:42.892Z,1167.00
2022-12-18T11:04:42.798Z,1304.00
2022-12-18T11:05:42.791Z,1265.00
2022-12-18T11:06:42.798Z,1236.00
2022-12-18T11:07:42.774Z,1309.00
2022-12-18T11:08:43.252Z,1274.00
2022-12-18T11:09:42.757Z,1323.00
2022-12-18T11:10:42.730Z,1269.00
2022-12-18T11:11:42.821Z,1306.00
2022-12-18T11:12:42.701Z,1307.00
2022-12-18T11:13:42.712Z,1314.00
2022-12-18T11:14:46.894Z,1531.00
2022-12-18T11:15:42.700Z,1421.00
2022-12-18T11:16:57.858Z,1335.00
2022-12-18T11:17:42.676Z,1470.00
2022-12-18T11:18:43.255Z,1357.00
2022-12-18T11:19:42.646Z,1413.00
2022-12-18T11:20:42.722Z,1359.00
2022-12-18T11:21:42.628Z,1372.00
2022-12-18T11:22:42.625Z,1337.00
2022-12-18T11:23:42.638Z,1334.00
2022-12-18T11:24:42.582Z,1286.00
2022-12-18T11:25:42.583Z,1435.00
2022-12-18T11:26:42.577Z,1259.00
2022-12-18T11:27:48.028Z,1348.00
2022-12-18T11:28:43.059Z,996.00
2022-12-18T11:29:46.622Z,1358.00
2022-12-18T11:30:42.544Z,1476.00
2022-12-18T11:31:42.617Z,1314.00
2022-12-18T11:32:42.508Z,1155.00
2022-12-18T11:33:53.342Z,1040.00
2022-12-18T11:34:42.492Z,1392.00
2022-12-18T11:35:42.486Z,1396.00
2022-12-18T11:36:43.028Z,1252.00
2022-12-18T11:37:42.460Z,1207.00
2022-12-18T11:38:42.809Z,1169.00
2022-12-18T11:39:42.462Z,1237.00
2022-12-18T11:40:42.429Z,1094.00
2022-12-18T11:41:42.416Z,1075.00
2022-12-18T11:42:42.387Z,1453.00
2022-12-18T11:43:42.402Z,989.00
2022-12-18T11:44:42.421Z,1283.00
2022-12-18T11:45:42.409Z,1460.00
2022-12-18T11:46:42.426Z,1190.00
2022-12-18T11:47:42.361Z,1120.00
2022-12-18T11:48:42.808Z,1120.00
2022-12-18T11:49:42.371Z,1178.00
2022-12-18T11:50:42.333Z,1056.00
2022-12-18T11:51:42.313Z,1301.00
2022-12-18T11:52:42.284Z,1223.00
2022-12-18T11:53:42.296Z,1091.00
2022-12-18T11:54:42.275Z,1102.00
2022-12-18T11:55:42.313Z,1403.00
2022-12-18T11:56:42.243Z,1099.00
2022-12-18T11:57:42.253Z,1209.00
2022-12-18T11:58:42.542Z,1256.00
2022-12-18T11:59:42.253Z,1250.00
2022-12-18T12:00:42.242Z,1179.00
2022-12-18T12:01:44.544Z,1348.00
2022-12-18T12:02:42.301Z,1229.00
2022-12-18T12:03:42.764Z,1257.00
2022-12-18T12:04:42.166Z,1243.00
2022-12-18T12:05:42.182Z,1343.00
2022-12-18T12:06:42.179Z,1313.00
2022-12-18T12:07:42.168Z,1279.00
2022-12-18T12:08:42.142Z,1191.00
2022-12-18T12:09:42.133Z,1316.00
2022-12-18T12:10:42.098Z,1224.00
2022-12-18T12:11:42.129Z,1307.00
2022-12-18T12:12:47.930Z,1375.00
2022-12-18T12:13:42.574Z,1161.00
2022-12-18T12:14:42.068Z,1228.00
2022-12-18T12:16:35.852Z,1278.00
2022-12-18T12:17:37.455Z,1271.00
2022-12-18T12:18:36.732Z,1251.00
2022-12-18T12:19:36.737Z,1312.00
2022-12-18T12:20:36.725Z,1360.00
2022-12-18T12:21:36.723Z,1200.00
2022-12-18T12:22:36.680Z,1198.00
2022-12-18T12:23:36.715Z,1237.00
2022-12-18T12:24:36.690Z,1130.00
2022-12-18T12:25:36.701Z,1191.00
2022-12-18T12:26:36.666Z,1257.00
2022-12-18T12:27:36.667Z,1205.00
2022-12-18T12:28:36.649Z,1165.00
2022-12-18T12:29:36.652Z,1088.00
2022-12-18T12:30:36.633Z,1249.00
2022-12-18T12:31:36.667Z,1145.00
2022-12-18T12:32:36.594Z,1139.00
2022-12-18T12:33:36.618Z,1129.00
2022-12-18T12:34:36.562Z,1104.00
2022-12-18T12:35:36.573Z,1192.00
2022-12-18T12:36:36.542Z,1168.00
2022-12-18T12:37:36.572Z,1063.00
2022-12-18T12:38:36.531Z,1034.00
2022-12-18T12:39:36.541Z,1079.00
2022-12-18T12:40:58.577Z,1133.00
2022-12-18T12:41:36.523Z,1106.00
2022-12-18T12:42:36.518Z,972.00
2022-12-18T12:43:36.518Z,1094.00
2022-12-18T12:44:36.489Z,1052.00
2022-12-18T12:45:36.522Z,1084.00
2022-12-18T12:46:36.439Z,1015.00
2022-12-18T12:47:36.464Z,1101.00
2022-12-18T12:48:36.428Z,986.00
2022-12-18T13:13:43.554Z,1072.00
2022-12-18T13:13:48.743Z,1088.00
2022-12-18T13:13:54.581Z,1056.00
2022-12-18T13:14:54.534Z,900.00
2022-12-18T13:15:54.533Z,946.00
2022-12-18T13:16:54.509Z,946.00
2022-12-18T13:17:54.535Z,891.00
2022-12-18T13:18:54.514Z,901.00
2022-12-18T13:19:54.502Z,881.00
2022-12-18T13:20:59.780Z,869.00
2022-12-18T13:21:54.471Z,902.00
2022-12-18T13:22:54.438Z,915.00
2022-12-18T13:23:54.433Z,894.00
2022-12-18T13:24:54.430Z,895.00
2022-12-18T13:25:54.488Z,907.00
2022-12-18T13:26:54.389Z,907.00
2022-12-18T13:27:54.403Z,898.00
2022-12-18T13:28:54.394Z,887.00
2022-12-18T13:29:54.381Z,915.00
2022-12-18T13:30:55.692Z,886.00
2022-12-18T13:31:54.359Z,882.00
2022-12-18T13:32:54.358Z,889.00
2022-12-18T13:34:25.698Z,892.00
2022-12-18T13:34:54.341Z,896.00
2022-12-18T13:35:54.340Z,889.00
2022-12-18T13:36:54.306Z,879.00
2022-12-18T13:37:54.321Z,871.00
2022-12-18T13:38:54.262Z,846.00
2022-12-18T13:39:54.287Z,850.00
2022-12-18T13:40:54.303Z,834.00
2022-12-18T13:41:54.268Z,816.00
2022-12-18T13:42:54.237Z,802.00
2022-12-18T13:43:54.274Z,799.00
2022-12-18T13:44:54.204Z,813.00
2022-12-18T13:45:54.260Z,819.00
2022-12-18T13:46:54.185Z,816.00
2022-12-18T13:47:54.212Z,806.00
2022-12-18T13:48:54.190Z,767.00
2022-12-18T13:49:54.203Z,751.00
2022-12-18T13:50:54.165Z,745.00
2022-12-18T13:51:54.219Z,734.00
2022-12-18T13:52:54.144Z,735.00
2022-12-18T13:53:54.119Z,725.00
2022-12-18T13:54:54.131Z,704.00
2022-12-18T13:55:55.038Z,683.00
2022-12-18T13:56:54.148Z,668.00
2022-12-18T13:57:54.072Z,654.00
2022-12-18T13:58:54.108Z,639.00
2022-12-18T13:59:54.051Z,638.00
2022-12-18T14:00:54.181Z,641.00
2022-12-18T14:01:54.245Z,626.00
2022-12-18T14:02:54.237Z,612.00
2022-12-18T14:03:54.026Z,609.00
2022-12-18T14:04:54.041Z,596.00
2022-12-18T14:05:53.996Z,596.00
2022-12-18T14:06:54.099Z,579.00
2022-12-18T14:07:53.997Z,575.00
2022-12-18T14:08:54.002Z,561.00
2022-12-18T14:10:01.910Z,551.00
2022-12-18T14:10:53.965Z,537.00
2022-12-18T14:11:53.968Z,535.00
2022-12-18T14:12:53.950Z,527.00
2022-12-18T14:13:53.941Z,513.00
2022-12-18T14:14:55.059Z,504.00
2022-12-18T14:15:53.900Z,495.00
2022-12-18T14:16:53.997Z,482.00
2022-12-18T14:17:55.002Z,477.00
2022-12-18T14:18:53.884Z,470.00
2022-12-18T14:19:53.880Z,471.00
2022-12-18T14:20:53.871Z,458.00
2022-12-18T14:21:53.847Z,447.00
2022-12-18T14:22:53.837Z,435.00
2022-12-18T14:23:53.811Z,432.00
2022-12-18T14:24:53.833Z,432.00
2022-12-18T14:25:53.797Z,419.00
2022-12-18T14:26:53.786Z,416.00
2022-12-18T14:27:53.801Z,411.00
2022-12-18T14:28:53.799Z,404.00
2022-12-18T14:29:53.791Z,394.00
2022-12-18T14:30:53.823Z,380.00
2022-12-18T14:31:53.742Z,366.00
2022-12-18T14:32:53.731Z,354.00
2022-12-18T14:33:53.715Z,344.00
2022-12-18T14:34:53.716Z,333.00
2022-12-18T14:35:53.708Z,328.00
2022-12-18T14:36:53.690Z,323.00
2022-12-18T14:37:53.664Z,318.00
2022-12-18T14:38:53.684Z,315.00
2022-12-18T14:39:53.647Z,307.00
2022-12-18T14:40:53.694Z,304.00
2022-12-18T14:41:53.639Z,293.00
2022-12-18T14:42:53.658Z,285.00
2022-12-18T14:43:53.622Z,274.00
2022-12-18T14:45:53.658Z,257.00
2022-12-18T14:46:53.589Z,253.00
2022-12-18T14:47:53.571Z,244.00
2022-12-18T14:48:53.595Z,238.00
2022-12-18T14:49:53.556Z,227.00
2022-12-18T14:50:53.552Z,219.00
2022-12-18T14:51:53.527Z,210.00
2022-12-18T14:52:53.558Z,215.00
2022-12-18T14:53:55.091Z,202.00
2022-12-18T14:54:53.496Z,192.00
2022-12-18T14:55:53.495Z,177.00
2022-12-18T14:56:53.487Z,172.00
2022-12-18T14:57:53.498Z,172.00
2022-12-18T14:58:53.494Z,161.00
2022-12-18T14:59:53.456Z,150.00
2022-12-18T15:00:53.449Z,146.00
2022-12-18T15:01:53.532Z,140.00
2022-12-18T15:02:53.562Z,132.00
2022-12-18T15:03:53.448Z,129.00
2022-12-18T15:04:53.453Z,124.00
2022-12-18T15:05:53.377Z,119.00
2022-12-18T15:06:53.404Z,113.00
2022-12-18T15:07:53.374Z,104.00
2022-12-18T15:08:53.374Z,101.00
2022-12-18T15:09:53.342Z,94.00
2022-12-18T15:10:53.412Z,91.00
2022-12-18T15:11:53.319Z,84.00
2022-12-18T15:12:53.320Z,76.00
2022-12-18T15:13:53.307Z,72.00
2022-12-18T15:14:53.312Z,66.00
2022-12-18T15:15:53.358Z,62.00
2022-12-18T15:16:53.275Z,56.00
2022-12-18T15:17:53.256Z,50.00
2022-12-18T15:18:53.288Z,47.00
2022-12-18T15:19:53.236Z,44.00
2022-12-18T15:20:53.293Z,44.00
2022-12-18T15:21:53.244Z,39.00
2022-12-18T15:22:53.301Z,35.00
2022-12-18T15:23:53.198Z,34.00
2022-12-18T15:24:53.204Z,34.00
2022-12-18T15:25:53.164Z,31.00
2022-12-18T15:26:53.215Z,28.00
2022-12-18T15:27:53.159Z,27.00
2022-12-18T15:28:53.164Z,26.00
2022-12-18T15:29:53.146Z,23.00
2022-12-18T15:30:53.223Z,20.00
2022-12-18T15:31:53.120Z,19.00
2022-12-18T15:32:53.158Z,17.00
2022-12-18T15:33:53.091Z,15.00
2022-12-18T15:34:53.104Z,14.00
2022-12-18T15:35:53.088Z,13.00
2022-12-18T15:36:53.087Z,11.00
2022-12-18T15:37:53.060Z,9.00
2022-12-18T15:38:53.078Z,7.00
2022-12-18T15:39:53.036Z,8.00
2022-12-18T15:40:53.029Z,6.00
2022-12-18T15:41:53.030Z,5.00
2022-12-18T15:42:53.031Z,5.00
2022-12-18T15:43:53.003Z,3.00
2022-12-18T15:44:53.018Z,3.00
2022-12-18T15:45:53.036Z,2.00
2022-12-18T15:46:52.981Z,2.00
2022-12-18T15:47:52.947Z,2.00
2022-12-18T15:48:57.990Z,1.00
2022-12-18T15:49:52.970Z,1.00
2022-12-18T15:50:53.013Z,0.00
2022-12-18T15:51:52.968Z,0.00
2022-12-18T15:52:52.967Z,0.00
2022-12-18T15:53:52.929Z,0.00
2022-12-18T15:54:52.948Z,0.00
2022-12-18T15:55:56.564Z,0.00
2022-12-18T15:56:52.945Z,0.00
2022-12-18T15:57:52.923Z,0.00
2022-12-18T15:58:52.912Z,0.00
2022-12-18T15:59:52.873Z,0.00
2022-12-18T16:00:52.882Z,0.00
2022-12-18T16:01:52.981Z,0.00
2022-12-18T16:02:53.180Z,0.00
2022-12-18T16:03:52.883Z,0.00
2022-12-18T16:04:52.851Z,0.00
2022-12-18T16:05:52.826Z,0.00
2022-12-18T16:07:52.813Z,0.00
2022-12-18T16:08:52.814Z,0.00
2022-12-18T16:09:52.826Z,0.00
2022-12-18T16:10:52.784Z,0.00
2022-12-18T16:11:52.753Z,0.00
2022-12-18T16:12:52.777Z,0.00
2022-12-18T16:13:52.762Z,0.00
2022-12-18T16:14:52.743Z,0.00
2022-12-18T16:15:52.786Z,0.00
2022-12-18T16:16:52.722Z,0.00
2022-12-18T16:17:52.779Z,0.00
2022-12-18T16:18:52.721Z,0.00
2022-12-18T16:19:52.665Z,0.00
2022-12-18T16:20:52.674Z,0.00
2022-12-18T16:21:52.670Z,0.00
2022-12-18T16:22:52.648Z,0.00
2022-12-18T16:23:52.676Z,0.00
2022-12-18T16:24:52.648Z,0.00
2022-12-18T16:25:52.603Z,0.00
2022-12-18T16:26:52.620Z,0.00
2022-12-18T16:27:52.587Z,0.00
2022-12-18T16:28:52.591Z,0.00
2022-12-18T16:29:52.590Z,0.00
2022-12-18T16:30:52.661Z,0.00
2022-12-18T16:31:52.545Z,0.00
2022-12-18T16:32:52.549Z,0.00
2022-12-18T16:33:52.524Z,0.00
2022-12-18T16:34:52.547Z,0.00
2022-12-18T16:35:52.509Z,0.00
2022-12-18T16:36:52.505Z,0.00
2022-12-18T16:37:52.493Z,0.00
2022-12-18T16:38:52.488Z,0.00
2022-12-18T16:39:52.460Z,0.00
2022-12-18T16:40:52.480Z,0.00
2022-12-18T16:41:52.467Z,0.00
2022-12-18T16:42:52.482Z,0.00
2022-12-18T16:43:54.987Z,0.00
2022-12-18T16:44:52.429Z,0.00
2022-12-18T16:45:52.396Z,0.00
2022-12-18T16:46:52.506Z,0.00
2022-12-18T16:47:52.392Z,0.00
2022-12-18T16:48:52.419Z,0.00
2022-12-18T16:49:52.357Z,0.00
2022-12-18T16:50:52.367Z,0.00
2022-12-18T16:51:52.340Z,0.00
2022-12-18T16:52:52.381Z,0.00
2022-12-18T16:53:52.310Z,0.00
2022-12-18T16:54:52.325Z,0.00
2022-12-18T16:55:52.316Z,0.00
2022-12-18T16:56:52.309Z,0.00
2022-12-18T16:57:52.269Z,0.00
2022-12-18T16:58:52.269Z,0.00
2022-12-18T16:59:52.252Z,0.00